Time;durP1;ratioP1;P1;durP2;ratioP2;P2;SDS_P1;SDS_P2;PMS_P1;PMS_P2;Temp;Humidity;BMP_temperature;BMP_pressure;BME280_temperature;BME280_humidity;BME280_pressure;Samples;Min_cycle;Max_cycle;Signal;HPM_P1;HPM_P2
2023/05/01 00:01:12;;;;;;;6.93;5.53;;;;;;;11.59;72.62;101224.69;5032989;28;20047;-64
2023/05/01 00:03:38;;;;;;;6.18;4.90;;;;;;;11.59;72.93;101226.44;5031875;28;20033;-63
2023/05/01 00:06:04;;;;;;;6.15;4.70;;;;;;;11.57;72.66;101220.41;5035502;28;20456;-64
2023/05/01 00:08:32;;;;;;;7.43;4.55;;;;;;;11.57;72.56;101218.69;5049108;28;20489;-64
2023/05/01 00:11:04;;;;;;;5.97;4.55;;;;;;;11.55;73.38;101216.94;5056278;28;20032;-64
2023/05/01 00:13:31;;;;;;;6.28;5.20;;;;;;;11.56;73.40;101218.69;5056766;28;20129;-64
2023/05/01 00:15:56;;;;;;;7.32;5.13;;;;;;;11.58;72.64;101217.78;5055399;28;20040;-63
2023/05/01 00:18:22;;;;;;;5.57;4.68;;;;;;;11.59;73.13;101211.75;5056106;28;20044;-63
2023/05/01 00:20:47;;;;;;;5.57;4.40;;;;;;;11.64;72.79;101209.13;5036607;28;20127;-64
2023/05/01 00:23:12;;;;;;;7.75;5.22;;;;;;;11.68;72.56;101201.34;5056548;28;20029;-64
2023/05/01 00:25:38;;;;;;;7.70;4.95;;;;;;;11.70;73.11;101202.19;5054546;28;20074;-63
2023/05/01 00:28:05;;;;;;;7.85;4.80;;;;;;;11.73;72.81;101209.06;5052082;28;20071;-64
2023/05/01 00:30:32;;;;;;;5.80;4.82;;;;;;;11.74;73.28;101203.03;5054972;28;20044;-64
2023/05/01 00:32:58;;;;;;;7.65;5.32;;;;;;;11.74;73.24;101203.91;5054627;28;20086;-63
2023/05/01 00:35:23;;;;;;;8.93;5.03;;;;;;;11.74;72.97;101205.63;5056730;28;20052;-63
2023/05/01 00:37:49;;;;;;;7.53;4.47;;;;;;;11.75;72.89;101203.00;5052820;28;20029;-64
2023/05/01 00:40:14;;;;;;;9.57;5.45;;;;;;;11.74;72.91;101198.72;5050123;28;20072;-64
2023/05/01 00:42:39;;;;;;;5.90;4.32;;;;;;;11.76;73.28;101196.97;5055291;28;22252;-64
2023/05/01 00:45:06;;;;;;;5.38;3.78;;;;;;;11.75;72.76;101192.66;5055655;28;20089;-64
2023/05/01 00:47:34;;;;;;;10.20;4.28;;;;;;;11.73;73.33;101194.41;5055843;28;20060;-64
2023/05/01 00:50:00;;;;;;;4.95;4.35;;;;;;;11.70;73.40;101197.00;5054753;28;20032;-64
2023/05/01 00:52:25;;;;;;;8.02;4.43;;;;;;;11.67;74.04;101196.16;5052605;28;20527;-64
2023/05/01 00:54:51;;;;;;;7.18;4.22;;;;;;;11.62;73.61;101191.03;5043532;28;20032;-63
2023/05/01 00:57:18;;;;;;;6.40;4.78;;;;;;;11.60;73.64;101192.78;5036280;28;20041;-64
2023/05/01 00:59:44;;;;;;;6.35;4.70;;;;;;;11.58;73.55;101184.13;5034468;28;20067;-64
2023/05/01 01:02:11;;;;;;;6.93;4.63;;;;;;;11.57;73.23;101178.97;5031827;28;20474;-64
2023/05/01 01:04:37;;;;;;;5.60;4.50;;;;;;;11.55;73.53;101173.78;5048037;28;20049;-63
2023/05/01 01:07:11;;;;;;;7.55;4.18;;;;;;;11.55;73.20;101167.75;5051199;28;20033;-64
2023/05/01 01:10:04;;;;;;;7.15;4.28;;;;;;;11.53;73.67;101166.91;5050144;28;20048;-63
2023/05/01 01:12:38;;;;;;;6.18;3.80;;;;;;;11.52;73.27;101160.00;5044783;28;20106;-63
2023/05/01 01:15:14;;;;;;;9.48;4.43;;;;;;;11.50;72.49;101151.41;5034911;28;20125;-64
2023/05/01 01:18:18;;;;;;;4.50;3.90;;;;;;;11.46;72.30;101135.03;5033534;28;20172;-66
2023/05/01 01:21:11;;;;;;;7.45;4.75;;;;;;;11.41;72.57;101144.50;5036586;28;20032;-64
2023/05/01 01:23:59;;;;;;;6.43;4.05;;;;;;;11.34;72.58;101135.06;5031348;28;20488;-64
2023/05/01 01:26:57;;;;;;;6.85;3.95;;;;;;;11.26;73.30;101150.63;5033244;28;20049;-64
2023/05/01 01:29:44;;;;;;;6.53;4.05;;;;;;;11.20;73.58;101153.25;5011608;28;20537;-64
2023/05/01 01:32:32;;;;;;;6.95;4.70;;;;;;;11.15;73.91;101157.59;5059693;28;20102;-64
2023/05/01 01:35:03;;;;;;;5.40;4.50;;;;;;;11.13;73.96;101161.03;5045997;28;20072;-64
2023/05/01 01:37:39;;;;;;;7.20;4.90;;;;;;;11.12;74.53;101155.03;5053101;28;20040;-64
2023/05/01 01:40:12;;;;;;;7.40;5.20;;;;;;;11.13;74.78;101155.84;5058365;28;20557;-64
2023/05/01 01:42:48;;;;;;;7.63;4.60;;;;;;;11.13;75.31;101154.13;5058835;28;20052;-63
2023/05/01 01:45:20;;;;;;;6.90;4.85;;;;;;;11.14;75.20;101145.53;5058332;28;20067;-64
2023/05/01 01:47:47;;;;;;;5.90;4.78;;;;;;;11.15;75.23;101139.50;5058683;28;20028;-65
2023/05/01 01:50:14;;;;;;;7.93;4.82;;;;;;;11.16;75.04;101136.00;5057455;28;20028;-64
2023/05/01 01:52:42;;;;;;;7.20;4.82;;;;;;;11.18;75.57;101136.88;5051245;28;20040;-64
2023/05/01 01:55:11;;;;;;;8.05;5.18;;;;;;;11.19;74.98;101129.97;5038531;28;20065;-64
2023/05/01 01:57:38;;;;;;;7.82;4.85;;;;;;;11.20;75.25;101129.97;5037265;28;20064;-64
2023/05/01 02:00:09;;;;;;;6.57;4.72;;;;;;;11.20;75.24;101119.63;5032991;28;20041;-64
2023/05/01 02:02:37;;;;;;;11.55;5.47;;;;;;;11.21;75.08;101129.13;5042506;28;20569;-63
2023/05/01 02:05:06;;;;;;;5.85;4.93;;;;;;;11.22;75.99;101125.63;5039110;28;20616;-64
2023/05/01 02:07:31;;;;;;;9.30;4.93;;;;;;;11.21;75.76;101123.06;5038945;28;20037;-64
2023/05/01 02:09:59;;;;;;;6.30;4.40;;;;;;;11.21;75.47;101108.41;5037532;28;20040;-64
2023/05/01 02:12:25;;;;;;;8.15;4.53;;;;;;;11.22;74.97;101117.00;5040545;28;20040;-64
2023/05/01 02:14:52;;;;;;;7.43;4.50;;;;;;;11.23;75.30;101110.97;5041580;28;20040;-64
2023/05/01 02:17:20;;;;;;;6.18;4.40;;;;;;;11.24;75.75;101113.56;5042307;28;20561;-64
2023/05/01 02:19:45;;;;;;;7.65;4.40;;;;;;;11.25;75.13;101106.63;5040274;28;20103;-64
2023/05/01 02:22:12;;;;;;;7.90;4.85;;;;;;;11.25;75.48;101106.63;5038192;28;20710;-64
2023/05/01 02:24:41;;;;;;;8.48;5.63;;;;;;;11.22;76.38;101102.34;5039782;28;20090;-64
2023/05/01 02:27:12;;;;;;;7.85;5.43;;;;;;;11.21;76.66;101104.97;5042072;28;20055;-64
2023/05/01 02:29:38;;;;;;;9.40;5.28;;;;;;;11.19;76.16;101098.91;5051589;28;20033;-64
2023/05/01 02:32:03;;;;;;;7.82;5.60;;;;;;;11.18;75.75;101100.66;5037289;28;20043;-64
2023/05/01 02:34:29;;;;;;;6.85;5.22;;;;;;;11.18;76.37;101092.03;5040194;28;20040;-64
2023/05/01 02:36:54;;;;;;;8.82;5.03;;;;;;;11.17;75.63;101090.31;5031479;28;20091;-64
2023/05/01 02:39:20;;;;;;;8.15;5.05;;;;;;;11.16;76.42;101089.44;5034625;28;20116;-64
2023/05/01 02:41:47;;;;;;;7.50;4.53;;;;;;;11.15;76.52;101082.56;5039086;28;20719;-64
2023/05/01 02:44:14;;;;;;;8.50;5.18;;;;;;;11.15;76.86;101086.88;5039291;28;20141;-64
2023/05/01 02:46:43;;;;;;;8.23;5.63;;;;;;;11.13;77.00;101081.69;5056666;28;20047;-64
2023/05/01 02:49:09;;;;;;;6.18;4.38;;;;;;;11.13;76.77;101075.66;5051680;28;20636;-64
2023/05/01 02:51:36;;;;;;;8.45;5.22;;;;;;;11.11;77.41;101074.81;5046470;28;20045;-64
2023/05/01 02:54:02;;;;;;;7.45;5.47;;;;;;;11.09;77.21;101064.50;5028201;28;20038;-64
2023/05/01 02:56:28;;;;;;;8.43;4.50;;;;;;;11.07;77.25;101063.63;5019102;28;20068;-64
2023/05/01 02:58:54;;;;;;;5.80;4.90;;;;;;;11.05;77.89;101064.50;5038316;28;20144;-64
2023/05/01 03:01:19;;;;;;;9.75;4.82;;;;;;;11.01;78.23;101070.59;5036822;28;20041;-64
2023/05/01 03:03:45;;;;;;;7.85;5.13;;;;;;;10.99;78.32;101067.97;5046092;28;20190;-64
2023/05/01 03:06:13;;;;;;;7.82;4.72;;;;;;;10.97;78.88;101067.16;5049065;28;20040;-64
2023/05/01 03:08:38;;;;;;;6.60;4.97;;;;;;;10.94;78.04;101056.81;5031353;28;20026;-64
2023/05/01 03:11:05;;;;;;;5.45;4.47;;;;;;;10.92;77.88;101057.69;5035829;28;20048;-64
2023/05/01 03:13:31;;;;;;;5.00;3.85;;;;;;;10.91;77.66;101053.38;5036085;28;20037;-64
2023/05/01 03:15:57;;;;;;;4.40;3.80;;;;;;;10.89;77.53;101045.59;5034212;28;20040;-64
2023/05/01 03:18:22;;;;;;;7.22;4.68;;;;;;;10.90;76.99;101038.72;5035801;28;20052;-64
2023/05/01 03:20:52;;;;;;;7.63;4.35;;;;;;;10.89;77.36;101034.44;5035493;28;20029;-64
2023/05/01 03:23:17;;;;;;;6.15;4.18;;;;;;;10.89;76.75;101034.44;5015946;28;20052;-64
2023/05/01 03:25:43;;;;;;;6.60;4.40;;;;;;;10.87;77.36;101031.84;5034732;28;21106;-64
2023/05/01 03:28:09;;;;;;;7.88;4.57;;;;;;;10.86;77.44;101027.53;5029728;28;20749;-65
2023/05/01 03:30:35;;;;;;;4.38;3.72;;;;;;;10.85;76.72;101028.41;5035831;28;20037;-64
2023/05/01 03:33:00;;;;;;;7.15;4.03;;;;;;;10.84;76.56;101029.28;5030091;28;20692;-64
2023/05/01 03:35:26;;;;;;;6.90;4.35;;;;;;;10.81;76.60;101029.28;5031479;28;20057;-64
2023/05/01 03:37:51;;;;;;;6.13;4.38;;;;;;;10.78;77.04;101029.31;5027533;28;20083;-64
2023/05/01 03:40:17;;;;;;;6.18;4.00;;;;;;;10.76;76.56;101025.88;5031787;28;20033;-64
2023/05/01 03:42:43;;;;;;;5.55;3.70;;;;;;;10.72;77.55;101016.41;5034519;28;20047;-64
2023/05/01 03:45:09;;;;;;;5.25;3.53;;;;;;;10.68;77.24;101025.06;5036131;28;20033;-64
2023/05/01 03:47:34;;;;;;;5.03;3.72;;;;;;;10.65;77.54;101025.06;5020750;28;20135;-64
2023/05/01 03:50:00;;;;;;;6.88;3.70;;;;;;;10.63;77.29;101022.47;5034025;28;20033;-64
2023/05/01 03:52:26;;;;;;;5.88;3.80;;;;;;;10.64;76.92;101028.50;5032086;28;20111;-64
2023/05/01 03:54:52;;;;;;;7.78;4.47;;;;;;;10.65;76.30;101015.56;5035865;28;20123;-64
2023/05/01 03:57:19;;;;;;;4.65;3.55;;;;;;;10.64;76.49;101013.00;5034727;28;20048;-64
2023/05/01 03:59:45;;;;;;;5.72;3.70;;;;;;;10.64;76.24;101016.44;5028221;28;20033;-64
2023/05/01 04:02:10;;;;;;;6.57;3.60;;;;;;;10.63;76.71;101009.56;5030796;28;20033;-64
2023/05/01 04:04:35;;;;;;;6.25;3.33;;;;;;;10.61;76.63;101010.44;5036943;28;20037;-64
2023/05/01 04:07:01;;;;;;;6.32;3.90;;;;;;;10.60;76.98;101014.75;5034839;28;20528;-64
2023/05/01 04:09:28;;;;;;;6.60;3.60;;;;;;;10.58;77.48;101011.31;5032274;28;20525;-64
2023/05/01 04:11:54;;;;;;;6.75;3.80;;;;;;;10.59;76.64;101007.00;5031017;28;20094;-64
2023/05/01 04:14:19;;;;;;;4.15;3.38;;;;;;;10.61;76.66;101007.84;5032087;28;20107;-64
2023/05/01 04:16:45;;;;;;;6.03;3.60;;;;;;;10.60;76.78;101009.56;5035750;28;20072;-64
2023/05/01 04:19:10;;;;;;;5.63;3.78;;;;;;;10.62;76.64;101002.66;5035104;28;20044;-65
2023/05/01 04:21:36;;;;;;;4.80;3.60;;;;;;;10.62;77.04;100997.50;5031637;28;20147;-64
2023/05/01 04:24:01;;;;;;;4.07;3.30;;;;;;;10.63;76.28;101001.81;5032562;28;20055;-64
2023/05/01 04:26:26;;;;;;;4.75;3.55;;;;;;;10.64;76.92;101003.53;5033377;28;20032;-64
2023/05/01 04:28:52;;;;;;;9.15;3.60;;;;;;;10.66;76.01;101003.50;5032666;28;20505;-64
2023/05/01 04:31:17;;;;;;;4.25;3.20;;;;;;;10.67;76.69;100997.47;5035342;28;20513;-63
2023/05/01 04:33:43;;;;;;;4.97;3.50;;;;;;;10.69;76.16;101001.78;5032174;28;20133;-64
2023/05/01 04:36:08;;;;;;;4.57;3.03;;;;;;;10.71;76.88;100997.44;5028587;28;20120;-64
2023/05/01 04:38:35;;;;;;;5.35;3.28;;;;;;;10.74;76.25;100997.44;5030710;28;20043;-64
2023/05/01 04:41:01;;;;;;;5.68;3.28;;;;;;;10.78;76.20;100995.69;5032380;28;20068;-64
2023/05/01 04:43:26;;;;;;;5.35;3.58;;;;;;;10.80;76.35;100994.81;5029861;28;20037;-63
2023/05/01 04:45:53;;;;;;;5.38;3.67;;;;;;;10.86;75.70;100996.50;5014012;28;20499;-64
2023/05/01 04:48:18;;;;;;;4.15;3.30;;;;;;;10.91;74.82;100988.72;5033565;28;20048;-64
2023/05/01 04:50:43;;;;;;;3.90;3.05;;;;;;;10.96;74.41;100992.13;5033445;28;20037;-63
2023/05/01 04:53:09;;;;;;;5.03;3.42;;;;;;;11.01;74.07;100993.81;5037309;28;21275;-63
2023/05/01 04:55:35;;;;;;;4.30;3.20;;;;;;;11.05;74.50;100994.66;5036390;28;20044;-63
2023/05/01 04:58:02;;;;;;;5.63;3.30;;;;;;;11.12;74.08;100989.44;5038769;28;20047;-63
2023/05/01 05:00:27;;;;;;;7.88;3.45;;;;;;;11.17;73.87;100985.09;5032939;28;20041;-63
2023/05/01 05:02:53;;;;;;;5.82;3.33;;;;;;;11.23;73.23;100984.19;5036917;28;20036;-63
2023/05/01 05:05:18;;;;;;;6.97;3.70;;;;;;;11.29;73.39;100985.00;5036353;28;20072;-63
2023/05/01 05:07:44;;;;;;;3.85;3.20;;;;;;;11.36;72.80;100978.06;5034126;28;20777;-63
2023/05/01 05:10:09;;;;;;;3.90;2.75;;;;;;;11.43;72.72;100973.66;5028904;28;20163;-63
2023/05/01 05:12:34;;;;;;;4.25;2.90;;;;;;;11.51;72.18;100977.97;5036257;28;20098;-63
2023/05/01 05:15:00;;;;;;;6.53;3.28;;;;;;;11.58;72.44;100968.38;5037888;28;20147;-64
2023/05/01 05:17:25;;;;;;;6.05;2.95;;;;;;;11.64;72.04;100973.50;5038234;28;20044;-63
2023/05/01 05:19:51;;;;;;;6.15;3.33;;;;;;;11.71;71.59;100970.88;5036096;28;20037;-63
2023/05/01 05:22:16;;;;;;;10.25;3.38;;;;;;;11.79;71.78;100968.19;5036587;28;20045;-63
2023/05/01 05:24:42;;;;;;;4.65;3.60;;;;;;;11.86;71.63;100969.84;5037077;28;21628;-63
2023/05/01 05:27:07;;;;;;;7.20;3.42;;;;;;;11.93;70.86;100965.47;5035786;28;20460;-63
2023/05/01 05:29:33;;;;;;;4.60;3.55;;;;;;;11.97;70.30;100955.03;5035593;28;20037;-63
2023/05/01 05:31:59;;;;;;;7.60;3.55;;;;;;;12.00;69.86;100948.97;5033085;28;20745;-63
2023/05/01 05:34:25;;;;;;;8.27;4.30;;;;;;;12.07;70.12;100954.06;5053127;28;20037;-63
2023/05/01 05:36:50;;;;;;;5.15;3.50;;;;;;;12.13;70.12;100955.72;5056209;28;20394;-63
2023/05/01 05:39:16;;;;;;;5.22;3.65;;;;;;;12.21;69.56;100952.19;5056708;28;20076;-63
2023/05/01 05:41:41;;;;;;;8.40;3.88;;;;;;;12.30;70.05;100956.38;5061664;28;20033;-63
2023/05/01 05:44:07;;;;;;;5.72;3.83;;;;;;;12.35;69.28;100946.81;5061158;28;20479;-63
2023/05/01 05:46:32;;;;;;;5.88;4.43;;;;;;;12.41;69.10;100944.13;5060903;28;20759;-63
2023/05/01 05:48:58;;;;;;;8.73;4.78;;;;;;;12.47;68.99;100944.06;5060381;28;20044;-63
2023/05/01 05:51:23;;;;;;;7.65;4.45;;;;;;;12.53;68.95;100945.72;5044666;28;20041;-63
2023/05/01 05:53:48;;;;;;;5.68;4.00;;;;;;;12.62;68.53;100943.00;5059196;28;20120;-63
2023/05/01 05:56:14;;;;;;;6.53;4.07;;;;;;;12.66;68.02;100929.97;5062144;28;20067;-63
2023/05/01 05:58:39;;;;;;;7.53;3.47;;;;;;;12.67;67.97;100925.66;5061715;28;20656;-63
2023/05/01 06:01:05;;;;;;;6.45;3.92;;;;;;;12.68;68.22;100932.53;5060661;28;20052;-63
2023/05/01 06:03:31;;;;;;;6.50;4.03;;;;;;;12.74;67.87;100924.66;5060928;28;20070;-63
2023/05/01 06:05:56;;;;;;;4.70;3.10;;;;;;;12.81;68.13;100936.69;5061379;28;20401;-63
2023/05/01 06:08:22;;;;;;;8.60;3.58;;;;;;;12.85;68.27;100935.75;5054582;28;20041;-62
2023/05/01 06:10:47;;;;;;;5.22;3.53;;;;;;;12.88;68.42;100939.13;5055962;28;20485;-63
2023/05/01 06:13:12;;;;;;;5.18;3.80;;;;;;;12.96;68.49;100941.63;5057601;28;20040;-62
2023/05/01 06:15:39;;;;;;;4.80;3.95;;;;;;;13.06;68.61;100945.00;5056634;28;20033;-63
2023/05/01 06:18:04;;;;;;;5.95;3.65;;;;;;;13.05;68.35;100940.66;5058371;28;20047;-63
2023/05/01 06:20:30;;;;;;;4.07;3.22;;;;;;;12.96;68.19;100932.13;5058316;28;20032;-63
2023/05/01 06:22:56;;;;;;;6.75;3.47;;;;;;;13.08;69.15;100954.47;5056249;28;20069;-63
2023/05/01 06:25:23;;;;;;;4.30;3.13;;;;;;;13.14;68.70;100937.94;5052273;28;20037;-63
2023/05/01 06:27:51;;;;;;;4.35;3.33;;;;;;;13.17;68.39;100937.88;5053555;28;20062;-63
2023/05/01 06:30:18;;;;;;;6.10;3.88;;;;;;;13.20;68.42;100941.28;5054961;28;20533;-63
2023/05/01 06:32:45;;;;;;;6.63;3.45;;;;;;;13.28;68.10;100928.16;5055757;28;20402;-63
2023/05/01 06:35:11;;;;;;;4.75;3.25;;;;;;;13.35;68.33;100934.97;5055015;28;20079;-63
2023/05/01 06:37:37;;;;;;;4.82;3.28;;;;;;;13.46;68.02;100931.31;5055504;28;20040;-63
2023/05/01 06:40:04;;;;;;;5.93;3.63;;;;;;;13.52;67.66;100922.56;5056871;28;20033;-63
2023/05/01 06:42:30;;;;;;;6.85;3.83;;;;;;;13.61;68.26;100930.19;5039825;28;20044;-63
2023/05/01 06:44:55;;;;;;;5.20;3.67;;;;;;;13.64;67.05;100917.16;5059544;28;20094;-63
2023/05/01 06:47:21;;;;;;;5.78;3.75;;;;;;;13.67;67.18;100914.50;5057611;28;20560;-63
2023/05/01 06:49:46;;;;;;;6.10;4.07;;;;;;;13.78;67.01;100916.88;5057184;28;20813;-63
2023/05/01 06:52:12;;;;;;;8.00;3.60;;;;;;;13.88;68.14;100937.47;5053154;28;20052;-63
2023/05/01 06:54:37;;;;;;;5.30;3.38;;;;;;;14.01;66.81;100905.16;5051289;28;20040;-63
2023/05/01 06:57:02;;;;;;;7.43;3.67;;;;;;;14.12;66.81;100907.53;5056456;28;20048;-63
2023/05/01 06:59:28;;;;;;;4.25;3.05;;;;;;;14.21;66.66;100909.09;5057048;28;20779;-63
2023/05/01 07:01:53;;;;;;;6.10;2.92;;;;;;;14.24;64.26;100863.09;5057043;28;20080;-63
2023/05/01 07:04:18;;;;;;;4.47;2.70;;;;;;;14.37;64.01;100854.13;5043644;28;20036;-63
2023/05/01 07:06:44;;;;;;;5.45;2.05;;;;;;;14.36;62.84;100836.81;5055271;28;20092;-63
2023/05/01 07:09:11;;;;;;;4.93;2.90;;;;;;;14.41;62.87;100845.41;5053292;28;20093;-63
2023/05/01 07:11:37;;;;;;;4.57;2.65;;;;;;;14.46;62.37;100833.13;5039096;28;20800;-63
2023/05/01 07:14:02;;;;;;;4.10;2.58;;;;;;;14.51;62.14;100831.28;5040308;28;20127;-63
2023/05/01 07:16:28;;;;;;;3.85;2.10;;;;;;;14.57;61.26;100817.28;5055545;28;20040;-63
2023/05/01 07:18:53;;;;;;;3.55;2.78;;;;;;;14.57;60.12;100788.69;5039190;28;20066;-63
2023/05/01 07:21:18;;;;;;;4.53;2.53;;;;;;;14.67;60.62;100808.34;5055728;28;20093;-63
2023/05/01 07:23:44;;;;;;;7.18;2.85;;;;;;;14.71;60.66;100804.81;5055431;28;20040;-63
2023/05/01 07:26:09;;;;;;;6.38;2.35;;;;;;;14.71;59.92;100797.00;5057168;28;20688;-63
2023/05/01 07:28:35;;;;;;;5.50;2.70;;;;;;;14.73;58.32;100770.91;5057546;28;20090;-62
2023/05/01 07:31:00;;;;;;;4.00;1.98;;;;;;;14.78;59.28;100782.09;5057831;28;20043;-63
2023/05/01 07:33:26;;;;;;;6.20;1.92;;;;;;;14.78;58.54;100775.13;5055766;28;20036;-63
2023/05/01 07:35:51;;;;;;;6.28;2.83;;;;;;;14.86;59.36;100791.41;5056050;28;20036;-63
2023/05/01 07:38:17;;;;;;;9.43;2.90;;;;;;;14.90;58.92;100787.81;5054298;28;20060;-62
2023/05/01 07:40:42;;;;;;;5.88;2.60;;;;;;;14.87;57.98;100759.25;5058391;28;20043;-63
2023/05/01 07:43:11;;;;;;;5.93;2.50;;;;;;;14.96;58.72;100787.66;5055912;28;20528;-63
2023/05/01 07:45:37;;;;;;;4.93;2.40;;;;;;;15.03;57.95;100775.34;5055880;28;20041;-63
2023/05/01 07:48:03;;;;;;;4.30;2.53;;;;;;;15.03;57.28;100757.13;5054695;28;20040;-63
2023/05/01 07:50:29;;;;;;;3.97;2.20;;;;;;;15.10;57.36;100763.88;5055974;28;20716;-62
2023/05/01 07:52:56;;;;;;;3.08;1.90;;;;;;;15.12;57.02;100756.88;5053533;28;20028;-62
2023/05/01 07:55:22;;;;;;;5.80;2.55;;;;;;;15.30;57.17;100763.34;5059002;28;20032;-62
2023/05/01 07:57:47;;;;;;;4.43;2.55;;;;;;;15.44;56.47;100754.22;5042473;28;20029;-62
2023/05/01 08:00:13;;;;;;;5.30;2.35;;;;;;;15.54;56.17;100749.63;5055353;28;20048;-63
2023/05/01 08:02:39;;;;;;;4.35;2.40;;;;;;;15.75;55.45;100736.84;5017111;28;20038;-63
2023/05/01 08:05:05;;;;;;;4.53;2.08;;;;;;;15.87;55.47;100737.38;5052533;28;20037;-63
2023/05/01 08:07:31;;;;;;;4.10;2.55;;;;;;;16.03;55.17;100734.25;5050541;28;20036;-62
2023/05/01 08:09:56;;;;;;;4.30;2.15;;;;;;;16.04;54.20;100722.06;5052603;28;20063;-62
2023/05/01 08:12:22;;;;;;;4.82;2.85;;;;;;;16.36;54.24;100718.41;5049538;28;20552;-62
2023/05/01 08:14:47;;;;;;;7.97;2.42;;;;;;;16.57;52.95;100707.28;5058777;28;20032;-63
2023/05/01 08:17:12;;;;;;;3.88;2.08;;;;;;;16.66;52.94;100712.19;5059418;28;20024;-63
2023/05/01 08:19:38;;;;;;;5.70;2.47;;;;;;;16.79;53.10;100718.72;5057373;28;20040;-63
2023/05/01 08:22:03;;;;;;;7.80;3.40;;;;;;;16.98;52.89;100714.56;5054595;28;20067;-63
2023/05/01 08:24:29;;;;;;;3.30;2.10;;;;;;;17.26;52.55;100701.38;5054487;28;20444;-63
2023/05/01 08:26:54;;;;;;;6.10;2.20;;;;;;;17.50;50.83;100683.91;5054799;28;20112;-63
2023/05/01 08:29:20;;;;;;;4.97;2.72;;;;;;;17.42;51.81;100702.53;5057696;28;20032;-62
2023/05/01 08:31:45;;;;;;;6.22;2.75;;;;;;;17.57;51.03;100681.03;5059856;28;20087;-63
2023/05/01 08:34:11;;;;;;;3.45;2.08;;;;;;;17.68;51.21;100693.69;5059779;28;20162;-63
2023/05/01 08:36:37;;;;;;;4.18;2.20;;;;;;;17.83;50.97;100696.56;5057231;28;20052;-63
2023/05/01 08:39:04;;;;;;;5.97;2.58;;;;;;;17.54;50.47;100683.75;5036902;28;20122;-63
2023/05/01 08:41:31;;;;;;;3.33;2.40;;;;;;;17.76;50.82;100686.38;5059091;28;20818;-63
2023/05/01 08:44:00;;;;;;;5.40;2.38;;;;;;;17.68;50.43;100691.06;5059551;28;20803;-61
2023/05/01 08:46:52;;;;;;;3.78;2.33;;;;;;;17.74;50.49;100693.44;5060074;28;20109;-63
2023/05/01 08:49:19;;;;;;;4.25;2.85;;;;;;;17.78;50.39;100688.03;5058602;28;20064;-63
2023/05/01 08:51:46;;;;;;;4.50;2.05;;;;;;;17.85;50.46;100689.53;5055629;28;20488;-63
2023/05/01 08:54:13;;;;;;;4.50;2.60;;;;;;;18.26;49.54;100673.91;5057679;28;20041;-62
2023/05/01 08:56:41;;;;;;;2.90;2.15;;;;;;;18.30;49.28;100678.97;5060653;28;20075;-62
2023/05/01 08:59:08;;;;;;;3.80;2.20;;;;;;;18.24;48.39;100667.91;5058714;28;20444;-63
2023/05/01 09:01:34;;;;;;;3.97;2.78;;;;;;;18.15;49.91;100695.31;5057527;28;20044;-62
2023/05/01 09:04:05;;;;;;;4.32;2.40;;;;;;;18.36;49.37;100683.97;5060354;28;20043;-62
2023/05/01 09:06:31;;;;;;;4.95;2.47;;;;;;;18.25;48.98;100675.72;5055351;28;20131;-62
2023/05/01 09:08:57;;;;;;;4.97;2.13;;;;;;;18.34;49.34;100680.56;5055588;28;20058;-62
2023/05/01 09:11:23;;;;;;;4.53;2.63;;;;;;;18.16;48.61;100667.38;5059805;28;20032;-62
2023/05/01 09:13:50;;;;;;;4.85;2.70;;;;;;;18.32;48.12;100668.44;5059274;28;20381;-62
2023/05/01 09:16:16;;;;;;;3.92;2.13;;;;;;;18.22;48.60;100667.13;5059175;28;20585;-63
2023/05/01 09:18:41;;;;;;;4.15;2.50;;;;;;;18.18;48.29;100669.00;5056145;28;20082;-62
2023/05/01 09:21:07;;;;;;;6.63;2.40;;;;;;;18.25;48.59;100672.25;5038956;28;20444;-63
2023/05/01 09:23:34;;;;;;;8.10;2.20;;;;;;;18.38;48.75;100666.41;5057651;28;20036;-62
2023/05/01 09:26:03;;;;;;;4.22;2.63;;;;;;;18.47;49.55;100686.97;5058457;28;20041;-62
2023/05/01 09:28:43;;;;;;;7.20;2.15;;;;;;;18.74;48.83;100665.75;5057968;28;20555;-62
2023/05/01 09:31:21;;;;;;;3.25;2.00;;;;;;;19.22;47.85;100663.63;5057652;28;20044;-62
2023/05/01 09:33:56;;;;;;;4.63;2.30;;;;;;;19.34;47.44;100636.00;5056271;28;20044;-62
2023/05/01 09:36:25;;;;;;;5.82;2.40;;;;;;;19.31;45.07;100607.31;5058237;28;20032;-63
2023/05/01 09:38:51;;;;;;;5.55;2.60;;;;;;;19.28;46.65;100633.66;5054727;28;20794;-63
2023/05/01 09:41:19;;;;;;;3.70;2.42;;;;;;;19.47;47.17;100642.41;5056646;28;20143;-62
2023/05/01 09:43:57;;;;;;;5.55;2.67;;;;;;;19.58;46.62;100647.97;5061332;28;20748;-62
2023/05/01 09:46:24;;;;;;;3.25;2.20;;;;;;;19.38;46.75;100646.28;5060398;28;20776;-62
2023/05/01 09:48:56;;;;;;;4.00;2.50;;;;;;;19.27;47.05;100650.31;5057859;28;20413;-62
2023/05/01 09:51:25;;;;;;;4.20;2.28;;;;;;;19.13;46.23;100631.75;5057355;28;20089;-62
2023/05/01 09:53:52;;;;;;;3.80;2.58;;;;;;;19.31;47.52;100663.22;5055321;28;20119;-63
2023/05/01 09:56:20;;;;;;;4.90;1.90;;;;;;;19.19;46.82;100644.56;5054928;28;20075;-62
2023/05/01 09:58:46;;;;;;;3.35;2.40;;;;;;;19.21;46.72;100651.44;5056246;28;20036;-63
2023/05/01 10:01:11;;;;;;;4.38;2.20;;;;;;;19.30;46.98;100650.16;5056917;28;20047;-62
2023/05/01 10:03:37;;;;;;;4.43;2.33;;;;;;;19.38;45.99;100635.81;5055781;28;20049;-62
2023/05/01 10:06:03;;;;;;;16.23;3.38;;;;;;;19.49;46.94;100648.41;5054845;28;20098;-63
2023/05/01 10:08:54;;;;;;;3.28;2.13;;;;;;;19.25;45.74;100628.56;5056540;28;20036;-62
2023/05/01 10:11:21;;;;;;;5.82;2.38;;;;;;;19.18;46.70;100643.72;5052900;28;20833;-62
2023/05/01 10:14:05;;;;;;;4.57;2.67;;;;;;;19.47;46.87;100648.47;5057534;28;20059;-62
2023/05/01 10:16:33;;;;;;;4.55;2.17;;;;;;;19.27;46.68;100645.06;5058433;28;20052;-63
2023/05/01 10:18:59;;;;;;;5.45;2.88;;;;;;;19.44;46.44;100647.78;5057980;28;20062;-62
2023/05/01 10:21:26;;;;;;;4.90;2.88;;;;;;;19.20;47.66;100678.59;5058013;28;20778;-62
2023/05/01 10:23:53;;;;;;;3.85;2.40;;;;;;;19.17;47.69;100677.88;5053658;28;20157;-62
2023/05/01 10:26:19;;;;;;;4.13;2.47;;;;;;;19.63;47.77;100677.44;5062837;28;20464;-62
2023/05/01 10:28:47;;;;;;;3.60;2.60;;;;;;;19.68;46.84;100664.94;5062877;28;20043;-62
2023/05/01 10:31:13;;;;;;;4.13;2.53;;;;;;;19.48;46.31;100647.53;5062418;28;20028;-62
2023/05/01 10:33:39;;;;;;;5.15;3.00;;;;;;;19.72;46.48;100663.03;5057648;28;20405;-62
2023/05/01 10:36:10;;;;;;;4.05;2.70;;;;;;;19.40;47.56;100673.28;5053794;28;20560;-63
2023/05/01 10:38:37;;;;;;;3.38;2.35;;;;;;;19.20;47.22;100662.00;5055306;28;20043;-63
2023/05/01 10:41:02;;;;;;;6.05;3.58;;;;;;;19.57;46.54;100654.13;5055361;28;20040;-62
2023/05/01 10:43:29;;;;;;;6.50;3.65;;;;;;;19.49;48.02;100665.00;5059266;28;20106;-62
2023/05/01 10:46:07;;;;;;;4.65;3.00;;;;;;;19.32;47.15;100658.81;5057193;28;20041;-62
2023/05/01 10:48:41;;;;;;;11.38;7.45;;;;;;;19.33;46.38;100645.63;5057130;28;20054;-62
2023/05/01 10:51:11;;;;;;;10.10;5.40;;;;;;;19.49;45.88;100635.28;5055096;28;20044;-62
2023/05/01 10:53:38;;;;;;;6.75;4.50;;;;;;;19.51;48.54;100665.75;5056915;28;20099;-62
2023/05/01 10:56:07;;;;;;;5.47;2.97;;;;;;;19.53;46.45;100640.31;5053411;28;20374;-62
2023/05/01 10:58:36;;;;;;;5.40;4.05;;;;;;;19.44;45.68;100621.56;5056983;28;20051;-62
2023/05/01 11:01:32;;;;;;;6.40;3.22;;;;;;;19.51;45.46;100615.09;5057995;28;20041;-62
2023/05/01 11:04:03;;;;;;;5.93;2.50;;;;;;;19.56;46.31;100631.47;5054661;28;20036;-62
2023/05/01 11:06:28;;;;;;;5.32;2.90;;;;;;;19.53;46.96;100637.69;5057079;28;20052;-62
2023/05/01 11:08:54;;;;;;;9.52;4.53;;;;;;;19.59;46.24;100628.72;5057752;28;20654;-67
2023/05/01 11:11:22;;;;;;;5.07;2.80;;;;;;;19.65;45.88;100617.91;5056425;28;20028;-67
2023/05/01 11:14:04;;;;;;;4.35;2.83;;;;;;;19.70;46.50;100633.44;5055463;28;20032;-67
2023/05/01 11:16:32;;;;;;;5.15;2.42;;;;;;;19.59;47.37;100649.69;5054779;28;20052;-67
2023/05/01 11:18:58;;;;;;;4.75;2.80;;;;;;;19.92;46.02;100626.22;5034654;28;20048;-66
2023/05/01 11:21:32;;;;;;;5.13;2.70;;;;;;;19.77;47.33;100646.16;5057577;28;20379;-67
2023/05/01 11:24:05;;;;;;;6.70;2.80;;;;;;;19.85;48.43;100665.06;5053582;28;20555;-67
2023/05/01 11:26:31;;;;;;;5.22;2.83;;;;;;;20.11;46.39;100633.16;5051152;28;20033;-67